sensor_id;sensor_type;location;lat;lon;timestamp;P1;durP1;ratioP1;P2;durP2;ratioP2
5191;SDS011;2615;44.524;11.284;2023-03-12T00:00:39;22.90;;;13.87;;
5191;SDS011;2615;44.524;11.284;2023-03-12T00:03:08;24.90;;;13.63;;
5191;SDS011;2615;44.524;11.284;2023-03-12T00:05:37;18.83;;;12.67;;
5191;SDS011;2615;44.524;11.284;2023-03-12T00:08:06;21.20;;;11.60;;
5191;SDS011;2615;44.524;11.284;2023-03-12T00:10:37;21.87;;;11.90;;
5191;SDS011;2615;44.524;11.284;2023-03-12T00:13:06;23.20;;;11.80;;
5191;SDS011;2615;44.524;11.284;2023-03-12T00:15:35;25.93;;;12.00;;
5191;SDS011;2615;44.524;11.284;2023-03-12T00:18:04;23.57;;;11.20;;
5191;SDS011;2615;44.524;11.284;2023-03-12T00:20:32;24.60;;;12.30;;
5191;SDS011;2615;44.524;11.284;2023-03-12T00:23:00;21.97;;;11.33;;
5191;SDS011;2615;44.524;11.284;2023-03-12T00:25:29;15.53;;;10.03;;
5191;SDS011;2615;44.524;11.284;2023-03-12T00:27:58;24.97;;;11.40;;
5191;SDS011;2615;44.524;11.284;2023-03-12T00:30:26;19.33;;;10.57;;
5191;SDS011;2615;44.524;11.284;2023-03-12T00:32:54;24.27;;;11.50;;
5191;SDS011;2615;44.524;11.284;2023-03-12T00:35:22;14.70;;;10.00;;
5191;SDS011;2615;44.524;11.284;2023-03-12T00:37:51;18.43;;;9.90;;
5191;SDS011;2615;44.524;11.284;2023-03-12T00:40:19;19.10;;;10.10;;
5191;SDS011;2615;44.524;11.284;2023-03-12T00:42:47;17.63;;;10.57;;
5191;SDS011;2615;44.524;11.284;2023-03-12T00:45:16;23.47;;;10.90;;
5191;SDS011;2615;44.524;11.284;2023-03-12T00:47:44;22.20;;;11.40;;
5191;SDS011;2615;44.524;11.284;2023-03-12T00:50:12;20.40;;;10.03;;
5191;SDS011;2615;44.524;11.284;2023-03-12T00:52:41;23.27;;;10.70;;
5191;SDS011;2615;44.524;11.284;2023-03-12T00:55:09;22.10;;;11.00;;
5191;SDS011;2615;44.524;11.284;2023-03-12T00:57:37;17.30;;;8.73;;
5191;SDS011;2615;44.524;11.284;2023-03-12T01:00:06;16.70;;;8.70;;
5191;SDS011;2615;44.524;11.284;2023-03-12T01:02:37;12.80;;;7.03;;
5191;SDS011;2615;44.524;11.284;2023-03-12T01:05:06;14.70;;;8.10;;
5191;SDS011;2615;44.524;11.284;2023-03-12T01:07:37;16.80;;;9.03;;
5191;SDS011;2615;44.524;11.284;2023-03-12T01:10:06;19.53;;;10.20;;
5191;SDS011;2615;44.524;11.284;2023-03-12T01:12:35;15.97;;;9.67;;
5191;SDS011;2615;44.524;11.284;2023-03-12T01:15:03;14.80;;;7.67;;
5191;SDS011;2615;44.524;11.284;2023-03-12T01:17:32;22.33;;;8.87;;
5191;SDS011;2615;44.524;11.284;2023-03-12T01:20:02;17.07;;;8.70;;
5191;SDS011;2615;44.524;11.284;2023-03-12T01:22:31;17.73;;;8.27;;
5191;SDS011;2615;44.524;11.284;2023-03-12T01:24:59;15.13;;;8.20;;
5191;SDS011;2615;44.524;11.284;2023-03-12T01:27:28;13.50;;;7.80;;
5191;SDS011;2615;44.524;11.284;2023-03-12T01:29:56;19.10;;;10.00;;
5191;SDS011;2615;44.524;11.284;2023-03-12T01:32:24;16.13;;;8.77;;
5191;SDS011;2615;44.524;11.284;2023-03-12T01:34:52;15.30;;;7.63;;
5191;SDS011;2615;44.524;11.284;2023-03-12T01:37:22;17.37;;;8.10;;
5191;SDS011;2615;44.524;11.284;2023-03-12T01:39:50;20.17;;;9.10;;
5191;SDS011;2615;44.524;11.284;2023-03-12T01:42:18;13.63;;;6.90;;
5191;SDS011;2615;44.524;11.284;2023-03-12T01:44:47;22.33;;;8.00;;
5191;SDS011;2615;44.524;11.284;2023-03-12T01:47:20;14.53;;;7.67;;
5191;SDS011;2615;44.524;11.284;2023-03-12T01:49:49;17.23;;;8.57;;
5191;SDS011;2615;44.524;11.284;2023-03-12T01:52:19;16.50;;;8.57;;
5191;SDS011;2615;44.524;11.284;2023-03-12T01:54:52;19.23;;;11.13;;
5191;SDS011;2615;44.524;11.284;2023-03-12T01:57:25;18.87;;;8.83;;
5191;SDS011;2615;44.524;11.284;2023-03-12T01:59:58;14.40;;;8.07;;
5191;SDS011;2615;44.524;11.284;2023-03-12T02:02:29;17.63;;;9.60;;
5191;SDS011;2615;44.524;11.284;2023-03-12T02:05:00;13.27;;;8.43;;
5191;SDS011;2615;44.524;11.284;2023-03-12T02:07:34;14.10;;;7.77;;
5191;SDS011;2615;44.524;11.284;2023-03-12T02:10:03;15.97;;;9.03;;
5191;SDS011;2615;44.524;11.284;2023-03-12T02:12:32;18.10;;;7.40;;
5191;SDS011;2615;44.524;11.284;2023-03-12T02:15:00;11.63;;;7.27;;
5191;SDS011;2615;44.524;11.284;2023-03-12T02:17:28;17.17;;;9.20;;
5191;SDS011;2615;44.524;11.284;2023-03-12T02:19:59;20.10;;;7.37;;
5191;SDS011;2615;44.524;11.284;2023-03-12T02:22:35;15.13;;;8.80;;
5191;SDS011;2615;44.524;11.284;2023-03-12T02:25:13;16.90;;;8.03;;
5191;SDS011;2615;44.524;11.284;2023-03-12T02:27:46;18.20;;;10.20;;
5191;SDS011;2615;44.524;11.284;2023-03-12T02:30:14;15.07;;;8.73;;
5191;SDS011;2615;44.524;11.284;2023-03-12T02:32:43;19.97;;;9.60;;
5191;SDS011;2615;44.524;11.284;2023-03-12T02:35:13;18.63;;;8.50;;
5191;SDS011;2615;44.524;11.284;2023-03-12T02:37:47;14.80;;;7.73;;
5191;SDS011;2615;44.524;11.284;2023-03-12T02:40:20;13.97;;;8.10;;
5191;SDS011;2615;44.524;11.284;2023-03-12T02:42:52;15.10;;;8.57;;
5191;SDS011;2615;44.524;11.284;2023-03-12T02:45:21;14.73;;;9.00;;
5191;SDS011;2615;44.524;11.284;2023-03-12T02:47:52;19.87;;;9.30;;
5191;SDS011;2615;44.524;11.284;2023-03-12T02:50:20;17.80;;;9.00;;
5191;SDS011;2615;44.524;11.284;2023-03-12T02:52:48;21.87;;;9.23;;
5191;SDS011;2615;44.524;11.284;2023-03-12T02:55:17;16.43;;;8.03;;
5191;SDS011;2615;44.524;11.284;2023-03-12T02:57:46;14.63;;;7.30;;
5191;SDS011;2615;44.524;11.284;2023-03-12T03:00:14;13.80;;;7.87;;
5191;SDS011;2615;44.524;11.284;2023-03-12T03:02:43;17.77;;;8.63;;
5191;SDS011;2615;44.524;11.284;2023-03-12T03:05:11;16.23;;;8.47;;
5191;SDS011;2615;44.524;11.284;2023-03-12T03:07:39;13.80;;;8.43;;
5191;SDS011;2615;44.524;11.284;2023-03-12T03:10:08;18.23;;;8.00;;
5191;SDS011;2615;44.524;11.284;2023-03-12T03:12:38;20.00;;;9.37;;
5191;SDS011;2615;44.524;11.284;2023-03-12T03:15:06;14.50;;;7.93;;
5191;SDS011;2615;44.524;11.284;2023-03-12T03:17:35;17.00;;;7.67;;
5191;SDS011;2615;44.524;11.284;2023-03-12T03:20:04;14.17;;;8.90;;
5191;SDS011;2615;44.524;11.284;2023-03-12T03:22:37;15.60;;;7.80;;
5191;SDS011;2615;44.524;11.284;2023-03-12T03:25:06;15.57;;;8.40;;
5191;SDS011;2615;44.524;11.284;2023-03-12T03:27:36;21.83;;;9.60;;
5191;SDS011;2615;44.524;11.284;2023-03-12T03:30:06;14.60;;;7.33;;
5191;SDS011;2615;44.524;11.284;2023-03-12T03:32:34;12.60;;;7.97;;
5191;SDS011;2615;44.524;11.284;2023-03-12T03:35:04;18.03;;;8.70;;
5191;SDS011;2615;44.524;11.284;2023-03-12T03:37:33;14.80;;;8.10;;
5191;SDS011;2615;44.524;11.284;2023-03-12T03:40:01;18.33;;;8.13;;
5191;SDS011;2615;44.524;11.284;2023-03-12T03:42:30;21.33;;;9.43;;
5191;SDS011;2615;44.524;11.284;2023-03-12T03:45:00;27.70;;;8.30;;
5191;SDS011;2615;44.524;11.284;2023-03-12T03:47:28;16.00;;;7.80;;
5191;SDS011;2615;44.524;11.284;2023-03-12T03:49:56;16.87;;;8.37;;
5191;SDS011;2615;44.524;11.284;2023-03-12T03:52:24;15.73;;;8.47;;
5191;SDS011;2615;44.524;11.284;2023-03-12T03:54:52;16.20;;;8.80;;
5191;SDS011;2615;44.524;11.284;2023-03-12T03:57:22;19.00;;;10.50;;
5191;SDS011;2615;44.524;11.284;2023-03-12T03:59:50;16.27;;;9.93;;
5191;SDS011;2615;44.524;11.284;2023-03-12T04:02:19;20.97;;;9.97;;
5191;SDS011;2615;44.524;11.284;2023-03-12T04:04:48;20.07;;;8.70;;
5191;SDS011;2615;44.524;11.284;2023-03-12T04:07:16;18.77;;;9.23;;
5191;SDS011;2615;44.524;11.284;2023-03-12T04:09:46;11.67;;;8.07;;
5191;SDS011;2615;44.524;11.284;2023-03-12T04:12:14;17.80;;;9.43;;
5191;SDS011;2615;44.524;11.284;2023-03-12T04:14:43;23.00;;;8.13;;
5191;SDS011;2615;44.524;11.284;2023-03-12T04:17:11;14.53;;;7.90;;
5191;SDS011;2615;44.524;11.284;2023-03-12T04:19:40;16.07;;;7.90;;
5191;SDS011;2615;44.524;11.284;2023-03-12T04:22:08;20.23;;;9.10;;
5191;SDS011;2615;44.524;11.284;2023-03-12T04:24:37;14.70;;;8.07;;
5191;SDS011;2615;44.524;11.284;2023-03-12T04:27:05;22.97;;;9.37;;
5191;SDS011;2615;44.524;11.284;2023-03-12T04:29:33;14.03;;;8.67;;
5191;SDS011;2615;44.524;11.284;2023-03-12T04:32:01;15.60;;;8.63;;
5191;SDS011;2615;44.524;11.284;2023-03-12T04:34:29;21.97;;;8.40;;
5191;SDS011;2615;44.524;11.284;2023-03-12T04:37:00;18.80;;;9.50;;
5191;SDS011;2615;44.524;11.284;2023-03-12T04:39:28;16.87;;;8.73;;
5191;SDS011;2615;44.524;11.284;2023-03-12T04:41:56;20.80;;;9.27;;
5191;SDS011;2615;44.524;11.284;2023-03-12T04:44:24;14.30;;;9.43;;
5191;SDS011;2615;44.524;11.284;2023-03-12T04:46:52;19.83;;;9.30;;
5191;SDS011;2615;44.524;11.284;2023-03-12T04:49:21;24.03;;;9.87;;
5191;SDS011;2615;44.524;11.284;2023-03-12T04:51:49;17.50;;;9.30;;
5191;SDS011;2615;44.524;11.284;2023-03-12T04:54:18;18.43;;;9.10;;
5191;SDS011;2615;44.524;11.284;2023-03-12T04:56:47;16.73;;;9.67;;
5191;SDS011;2615;44.524;11.284;2023-03-12T04:59:16;13.97;;;9.20;;
5191;SDS011;2615;44.524;11.284;2023-03-12T05:01:44;20.00;;;9.27;;
5191;SDS011;2615;44.524;11.284;2023-03-12T05:04:12;16.83;;;10.07;;
5191;SDS011;2615;44.524;11.284;2023-03-12T05:06:40;19.50;;;11.77;;
5191;SDS011;2615;44.524;11.284;2023-03-12T05:09:08;19.40;;;11.60;;
5191;SDS011;2615;44.524;11.284;2023-03-12T05:11:37;23.27;;;11.93;;
5191;SDS011;2615;44.524;11.284;2023-03-12T05:14:05;20.43;;;10.87;;
5191;SDS011;2615;44.524;11.284;2023-03-12T05:16:33;19.80;;;11.00;;
5191;SDS011;2615;44.524;11.284;2023-03-12T05:19:02;24.67;;;11.67;;
5191;SDS011;2615;44.524;11.284;2023-03-12T05:21:30;20.70;;;10.87;;
5191;SDS011;2615;44.524;11.284;2023-03-12T05:23:58;20.10;;;12.00;;
5191;SDS011;2615;44.524;11.284;2023-03-12T05:26:28;20.47;;;12.23;;
5191;SDS011;2615;44.524;11.284;2023-03-12T05:28:59;21.37;;;12.27;;
5191;SDS011;2615;44.524;11.284;2023-03-12T05:31:28;18.80;;;10.97;;
5191;SDS011;2615;44.524;11.284;2023-03-12T05:34:00;23.67;;;11.77;;
5191;SDS011;2615;44.524;11.284;2023-03-12T05:36:28;19.73;;;12.00;;
5191;SDS011;2615;44.524;11.284;2023-03-12T05:38:56;27.60;;;13.83;;
5191;SDS011;2615;44.524;11.284;2023-03-12T05:41:26;19.30;;;11.50;;
5191;SDS011;2615;44.524;11.284;2023-03-12T05:43:55;18.80;;;11.50;;
5191;SDS011;2615;44.524;11.284;2023-03-12T05:46:25;20.97;;;11.60;;
5191;SDS011;2615;44.524;11.284;2023-03-12T05:48:54;19.47;;;11.60;;
5191;SDS011;2615;44.524;11.284;2023-03-12T05:51:22;24.27;;;12.13;;
5191;SDS011;2615;44.524;11.284;2023-03-12T05:53:50;21.43;;;12.20;;
5191;SDS011;2615;44.524;11.284;2023-03-12T05:56:19;15.23;;;11.00;;
5191;SDS011;2615;44.524;11.284;2023-03-12T05:58:47;20.40;;;11.20;;
5191;SDS011;2615;44.524;11.284;2023-03-12T06:01:16;18.90;;;12.00;;
5191;SDS011;2615;44.524;11.284;2023-03-12T06:03:47;16.57;;;10.47;;
5191;SDS011;2615;44.524;11.284;2023-03-12T06:06:16;22.33;;;10.50;;
5191;SDS011;2615;44.524;11.284;2023-03-12T06:08:44;18.93;;;9.77;;
5191;SDS011;2615;44.524;11.284;2023-03-12T06:11:13;18.90;;;11.53;;
5191;SDS011;2615;44.524;11.284;2023-03-12T06:13:41;15.53;;;10.60;;
5191;SDS011;2615;44.524;11.284;2023-03-12T06:16:10;21.70;;;10.30;;
5191;SDS011;2615;44.524;11.284;2023-03-12T06:18:42;21.50;;;10.23;;
5191;SDS011;2615;44.524;11.284;2023-03-12T06:21:12;17.00;;;10.23;;
5191;SDS011;2615;44.524;11.284;2023-03-12T06:23:42;26.73;;;10.97;;
5191;SDS011;2615;44.524;11.284;2023-03-12T06:26:11;38.53;;;11.20;;
5191;SDS011;2615;44.524;11.284;2023-03-12T06:28:40;20.40;;;10.13;;
5191;SDS011;2615;44.524;11.284;2023-03-12T06:31:08;22.07;;;10.33;;
5191;SDS011;2615;44.524;11.284;2023-03-12T06:33:36;15.97;;;8.43;;
5191;SDS011;2615;44.524;11.284;2023-03-12T06:36:05;14.37;;;7.87;;
5191;SDS011;2615;44.524;11.284;2023-03-12T06:38:36;15.13;;;8.23;;
5191;SDS011;2615;44.524;11.284;2023-03-12T06:41:05;14.10;;;7.60;;
5191;SDS011;2615;44.524;11.284;2023-03-12T06:43:35;15.73;;;9.10;;
5191;SDS011;2615;44.524;11.284;2023-03-12T06:46:05;14.10;;;8.43;;
5191;SDS011;2615;44.524;11.284;2023-03-12T06:48:34;10.87;;;7.17;;
5191;SDS011;2615;44.524;11.284;2023-03-12T06:51:06;13.77;;;7.57;;
5191;SDS011;2615;44.524;11.284;2023-03-12T06:53:34;15.37;;;6.80;;
5191;SDS011;2615;44.524;11.284;2023-03-12T06:56:07;19.37;;;7.87;;
5191;SDS011;2615;44.524;11.284;2023-03-12T06:58:36;13.43;;;6.70;;
5191;SDS011;2615;44.524;11.284;2023-03-12T07:01:04;15.00;;;8.53;;
5191;SDS011;2615;44.524;11.284;2023-03-12T07:03:33;14.43;;;7.03;;
5191;SDS011;2615;44.524;11.284;2023-03-12T07:06:01;12.77;;;6.70;;
5191;SDS011;2615;44.524;11.284;2023-03-12T07:08:30;12.43;;;6.90;;
5191;SDS011;2615;44.524;11.284;2023-03-12T07:10:59;13.23;;;7.10;;
5191;SDS011;2615;44.524;11.284;2023-03-12T07:13:27;14.03;;;7.50;;
5191;SDS011;2615;44.524;11.284;2023-03-12T07:15:55;15.07;;;7.03;;
5191;SDS011;2615;44.524;11.284;2023-03-12T07:18:24;17.20;;;7.03;;
5191;SDS011;2615;44.524;11.284;2023-03-12T07:20:52;11.17;;;6.77;;
5191;SDS011;2615;44.524;11.284;2023-03-12T07:23:21;12.50;;;6.57;;
5191;SDS011;2615;44.524;11.284;2023-03-12T07:25:49;16.50;;;6.80;;
5191;SDS011;2615;44.524;11.284;2023-03-12T07:28:19;14.47;;;5.60;;
5191;SDS011;2615;44.524;11.284;2023-03-12T07:30:48;11.80;;;5.87;;
5191;SDS011;2615;44.524;11.284;2023-03-12T07:33:17;11.70;;;5.87;;
5191;SDS011;2615;44.524;11.284;2023-03-12T07:35:46;8.20;;;5.70;;
5191;SDS011;2615;44.524;11.284;2023-03-12T07:38:17;11.50;;;6.13;;
5191;SDS011;2615;44.524;11.284;2023-03-12T07:40:48;14.57;;;7.33;;
5191;SDS011;2615;44.524;11.284;2023-03-12T07:43:18;8.80;;;5.83;;
5191;SDS011;2615;44.524;11.284;2023-03-12T07:45:47;15.87;;;5.90;;
5191;SDS011;2615;44.524;11.284;2023-03-12T07:48:15;9.67;;;5.80;;
5191;SDS011;2615;44.524;11.284;2023-03-12T07:50:45;12.33;;;8.13;;
5191;SDS011;2615;44.524;11.284;2023-03-12T07:53:14;13.60;;;6.73;;
5191;SDS011;2615;44.524;11.284;2023-03-12T07:55:42;10.03;;;6.60;;
5191;SDS011;2615;44.524;11.284;2023-03-12T07:58:12;11.07;;;5.83;;
5191;SDS011;2615;44.524;11.284;2023-03-12T08:00:42;11.70;;;5.40;;
5191;SDS011;2615;44.524;11.284;2023-03-12T08:03:11;5.90;;;4.53;;
5191;SDS011;2615;44.524;11.284;2023-03-12T08:05:39;6.90;;;4.67;;
5191;SDS011;2615;44.524;11.284;2023-03-12T08:08:08;6.80;;;4.20;;
5191;SDS011;2615;44.524;11.284;2023-03-12T08:10:36;10.37;;;5.53;;
5191;SDS011;2615;44.524;11.284;2023-03-12T08:13:04;8.37;;;4.73;;
5191;SDS011;2615;44.524;11.284;2023-03-12T08:15:32;9.30;;;5.17;;
5191;SDS011;2615;44.524;11.284;2023-03-12T08:18:02;9.87;;;4.93;;
5191;SDS011;2615;44.524;11.284;2023-03-12T08:20:30;6.07;;;4.20;;
5191;SDS011;2615;44.524;11.284;2023-03-12T08:22:58;5.47;;;3.83;;
5191;SDS011;2615;44.524;11.284;2023-03-12T08:25:26;6.90;;;4.20;;
5191;SDS011;2615;44.524;11.284;2023-03-12T08:27:55;7.20;;;3.80;;
5191;SDS011;2615;44.524;11.284;2023-03-12T08:30:23;6.73;;;4.37;;
5191;SDS011;2615;44.524;11.284;2023-03-12T08:32:55;5.73;;;3.87;;
5191;SDS011;2615;44.524;11.284;2023-03-12T08:35:24;8.13;;;4.47;;
5191;SDS011;2615;44.524;11.284;2023-03-12T08:37:52;7.43;;;4.10;;
5191;SDS011;2615;44.524;11.284;2023-03-12T08:40:22;8.20;;;4.40;;
5191;SDS011;2615;44.524;11.284;2023-03-12T08:42:51;8.13;;;4.10;;
5191;SDS011;2615;44.524;11.284;2023-03-12T08:45:19;7.20;;;3.70;;
5191;SDS011;2615;44.524;11.284;2023-03-12T08:47:47;9.33;;;3.50;;
5191;SDS011;2615;44.524;11.284;2023-03-12T08:50:15;7.37;;;3.87;;
5191;SDS011;2615;44.524;11.284;2023-03-12T08:52:45;7.83;;;4.17;;
5191;SDS011;2615;44.524;11.284;2023-03-12T08:55:13;6.77;;;4.03;;
5191;SDS011;2615;44.524;11.284;2023-03-12T08:57:41;10.33;;;4.50;;
5191;SDS011;2615;44.524;11.284;2023-03-12T09:00:09;10.10;;;4.60;;
5191;SDS011;2615;44.524;11.284;2023-03-12T09:02:42;10.87;;;3.63;;
5191;SDS011;2615;44.524;11.284;2023-03-12T09:05:10;7.47;;;3.13;;
5191;SDS011;2615;44.524;11.284;2023-03-12T09:07:39;8.10;;;4.30;;
5191;SDS011;2615;44.524;11.284;2023-03-12T09:10:09;11.87;;;3.77;;
5191;SDS011;2615;44.524;11.284;2023-03-12T09:12:37;8.40;;;3.83;;
5191;SDS011;2615;44.524;11.284;2023-03-12T09:15:06;8.73;;;3.17;;
5191;SDS011;2615;44.524;11.284;2023-03-12T09:17:35;11.37;;;3.80;;
5191;SDS011;2615;44.524;11.284;2023-03-12T09:20:04;8.03;;;5.17;;
5191;SDS011;2615;44.524;11.284;2023-03-12T09:22:34;10.37;;;3.10;;
5191;SDS011;2615;44.524;11.284;2023-03-12T09:25:03;9.00;;;3.80;;
5191;SDS011;2615;44.524;11.284;2023-03-12T09:27:36;8.13;;;3.90;;
5191;SDS011;2615;44.524;11.284;2023-03-12T09:30:04;6.63;;;3.60;;
5191;SDS011;2615;44.524;11.284;2023-03-12T09:32:34;9.97;;;3.90;;
5191;SDS011;2615;44.524;11.284;2023-03-12T09:35:02;10.40;;;3.80;;
5191;SDS011;2615;44.524;11.284;2023-03-12T09:37:31;11.13;;;4.07;;
5191;SDS011;2615;44.524;11.284;2023-03-12T09:39:59;9.03;;;3.20;;
5191;SDS011;2615;44.524;11.284;2023-03-12T09:42:32;9.00;;;3.80;;
5191;SDS011;2615;44.524;11.284;2023-03-12T09:45:10;9.73;;;4.50;;
5191;SDS011;2615;44.524;11.284;2023-03-12T09:47:45;8.77;;;4.13;;
5191;SDS011;2615;44.524;11.284;2023-03-12T09:50:20;6.83;;;3.20;;
5191;SDS011;2615;44.524;11.284;2023-03-12T09:52:56;11.80;;;3.80;;
5191;SDS011;2615;44.524;11.284;2023-03-12T09:55:27;7.90;;;3.33;;
5191;SDS011;2615;44.524;11.284;2023-03-12T09:58:03;10.00;;;4.13;;
5191;SDS011;2615;44.524;11.284;2023-03-12T10:00:36;12.97;;;3.83;;
5191;SDS011;2615;44.524;11.284;2023-03-12T10:03:17;17.83;;;5.13;;
5191;SDS011;2615;44.524;11.284;2023-03-12T10:05:57;10.77;;;3.60;;
5191;SDS011;2615;44.524;11.284;2023-03-12T10:08:35;7.87;;;3.73;;
5191;SDS011;2615;44.524;11.284;2023-03-12T10:11:14;13.97;;;4.47;;
5191;SDS011;2615;44.524;11.284;2023-03-12T10:13:54;9.00;;;4.10;;
5191;SDS011;2615;44.524;11.284;2023-03-12T10:16:38;14.20;;;5.07;;
5191;SDS011;2615;44.524;11.284;2023-03-12T10:22:13;10.93;;;4.00;;
5191;SDS011;2615;44.524;11.284;2023-03-12T10:24:54;13.77;;;4.10;;
5191;SDS011;2615;44.524;11.284;2023-03-12T10:27:28;8.43;;;3.80;;
5191;SDS011;2615;44.524;11.284;2023-03-12T10:30:01;14.20;;;4.70;;
5191;SDS011;2615;44.524;11.284;2023-03-12T10:32:40;10.77;;;4.17;;
5191;SDS011;2615;44.524;11.284;2023-03-12T10:35:13;11.27;;;4.37;;
5191;SDS011;2615;44.524;11.284;2023-03-12T10:37:46;14.20;;;5.10;;
5191;SDS011;2615;44.524;11.284;2023-03-12T10:40:17;11.43;;;4.73;;
5191;SDS011;2615;44.524;11.284;2023-03-12T10:42:47;8.90;;;4.67;;
5191;SDS011;2615;44.524;11.284;2023-03-12T10:45:24;9.37;;;3.70;;
5191;SDS011;2615;44.524;11.284;2023-03-12T10:47:59;13.70;;;5.00;;
5191;SDS011;2615;44.524;11.284;2023-03-12T10:50:31;15.97;;;5.47;;
5191;SDS011;2615;44.524;11.284;2023-03-12T10:53:16;13.23;;;6.23;;
5191;SDS011;2615;44.524;11.284;2023-03-12T10:55:58;10.27;;;4.40;;
5191;SDS011;2615;44.524;11.284;2023-03-12T10:58:30;16.50;;;4.87;;
5191;SDS011;2615;44.524;11.284;2023-03-12T11:01:03;16.40;;;4.97;;
5191;SDS011;2615;44.524;11.284;2023-03-12T11:03:47;10.83;;;3.80;;
5191;SDS011;2615;44.524;11.284;2023-03-12T11:06:19;17.27;;;4.33;;
5191;SDS011;2615;44.524;11.284;2023-03-12T11:09:01;7.73;;;3.30;;
5191;SDS011;2615;44.524;11.284;2023-03-12T11:11:47;9.87;;;4.40;;
5191;SDS011;2615;44.524;11.284;2023-03-12T11:14:16;10.17;;;5.00;;
5191;SDS011;2615;44.524;11.284;2023-03-12T11:16:47;12.20;;;4.30;;
5191;SDS011;2615;44.524;11.284;2023-03-12T11:19:24;11.80;;;4.30;;
5191;SDS011;2615;44.524;11.284;2023-03-12T11:21:55;14.83;;;4.60;;
5191;SDS011;2615;44.524;11.284;2023-03-12T11:24:25;13.30;;;4.37;;
5191;SDS011;2615;44.524;11.284;2023-03-12T11:26:55;8.07;;;4.10;;
5191;SDS011;2615;44.524;11.284;2023-03-12T11:29:29;9.40;;;3.87;;
5191;SDS011;2615;44.524;11.284;2023-03-12T11:32:01;13.20;;;5.10;;
5191;SDS011;2615;44.524;11.284;2023-03-12T11:34:33;9.57;;;3.30;;
5191;SDS011;2615;44.524;11.284;2023-03-12T11:37:13;10.77;;;3.83;;
5191;SDS011;2615;44.524;11.284;2023-03-12T11:39:51;12.13;;;4.70;;
5191;SDS011;2615;44.524;11.284;2023-03-12T11:42:35;9.10;;;4.33;;
5191;SDS011;2615;44.524;11.284;2023-03-12T11:45:13;11.20;;;5.73;;
5191;SDS011;2615;44.524;11.284;2023-03-12T11:47:52;9.67;;;4.10;;
5191;SDS011;2615;44.524;11.284;2023-03-12T11:50:36;9.43;;;4.40;;
5191;SDS011;2615;44.524;11.284;2023-03-12T11:53:14;11.37;;;4.70;;
5191;SDS011;2615;44.524;11.284;2023-03-12T11:56:03;8.07;;;4.90;;
5191;SDS011;2615;44.524;11.284;2023-03-12T11:58:48;11.97;;;4.10;;
5191;SDS011;2615;44.524;11.284;2023-03-12T12:01:39;13.03;;;3.93;;
5191;SDS011;2615;44.524;11.284;2023-03-12T12:07:42;11.47;;;4.00;;
5191;SDS011;2615;44.524;11.284;2023-03-12T12:10:21;10.23;;;4.23;;
5191;SDS011;2615;44.524;11.284;2023-03-12T12:12:55;12.17;;;4.47;;
5191;SDS011;2615;44.524;11.284;2023-03-12T12:15:35;12.33;;;4.97;;
5191;SDS011;2615;44.524;11.284;2023-03-12T12:18:14;9.77;;;4.17;;
5191;SDS011;2615;44.524;11.284;2023-03-12T12:20:57;11.40;;;5.17;;
5191;SDS011;2615;44.524;11.284;2023-03-12T12:23:34;9.57;;;3.70;;
5191;SDS011;2615;44.524;11.284;2023-03-12T12:26:13;9.80;;;4.20;;
5191;SDS011;2615;44.524;11.284;2023-03-12T12:28:52;10.40;;;4.00;;
5191;SDS011;2615;44.524;11.284;2023-03-12T12:31:29;17.30;;;5.23;;
5191;SDS011;2615;44.524;11.284;2023-03-12T12:37:26;11.43;;;4.10;;
5191;SDS011;2615;44.524;11.284;2023-03-12T12:40:11;10.37;;;4.00;;
5191;SDS011;2615;44.524;11.284;2023-03-12T12:42:52;9.97;;;4.10;;
5191;SDS011;2615;44.524;11.284;2023-03-12T12:45:25;13.10;;;3.50;;
5191;SDS011;2615;44.524;11.284;2023-03-12T12:47:57;7.10;;;2.83;;
5191;SDS011;2615;44.524;11.284;2023-03-12T12:50:28;13.20;;;3.70;;
5191;SDS011;2615;44.524;11.284;2023-03-12T12:53:04;7.60;;;3.37;;
5191;SDS011;2615;44.524;11.284;2023-03-12T12:55:43;9.13;;;3.67;;
5191;SDS011;2615;44.524;11.284;2023-03-12T12:58:17;9.93;;;3.40;;
5191;SDS011;2615;44.524;11.284;2023-03-12T13:00:50;8.73;;;4.07;;
5191;SDS011;2615;44.524;11.284;2023-03-12T13:03:22;12.17;;;4.07;;
5191;SDS011;2615;44.524;11.284;2023-03-12T13:05:54;16.30;;;5.30;;
5191;SDS011;2615;44.524;11.284;2023-03-12T13:08:35;9.27;;;4.63;;
5191;SDS011;2615;44.524;11.284;2023-03-12T13:11:22;9.30;;;3.20;;
5191;SDS011;2615;44.524;11.284;2023-03-12T13:16:41;5.10;;;2.83;;
5191;SDS011;2615;44.524;11.284;2023-03-12T13:19:20;13.10;;;4.40;;
5191;SDS011;2615;44.524;11.284;2023-03-12T13:21:58;10.40;;;3.37;;
5191;SDS011;2615;44.524;11.284;2023-03-12T13:24:38;9.43;;;4.10;;
5191;SDS011;2615;44.524;11.284;2023-03-12T13:27:13;7.90;;;4.23;;
5191;SDS011;2615;44.524;11.284;2023-03-12T13:29:46;9.27;;;3.30;;
5191;SDS011;2615;44.524;11.284;2023-03-12T13:32:36;9.43;;;3.90;;
5191;SDS011;2615;44.524;11.284;2023-03-12T13:35:30;12.47;;;4.60;;
5191;SDS011;2615;44.524;11.284;2023-03-12T13:38:04;15.27;;;3.80;;
5191;SDS011;2615;44.524;11.284;2023-03-12T13:40:37;5.97;;;3.10;;
5191;SDS011;2615;44.524;11.284;2023-03-12T13:46:34;11.27;;;3.30;;
5191;SDS011;2615;44.524;11.284;2023-03-12T13:49:11;9.40;;;3.33;;
5191;SDS011;2615;44.524;11.284;2023-03-12T13:51:43;8.00;;;3.70;;
5191;SDS011;2615;44.524;11.284;2023-03-12T13:54:18;6.23;;;3.30;;
5191;SDS011;2615;44.524;11.284;2023-03-12T13:56:55;8.80;;;3.90;;
5191;SDS011;2615;44.524;11.284;2023-03-12T13:59:26;5.77;;;3.40;;
5191;SDS011;2615;44.524;11.284;2023-03-12T14:01:56;11.93;;;4.47;;
5191;SDS011;2615;44.524;11.284;2023-03-12T14:04:30;9.37;;;3.97;;
5191;SDS011;2615;44.524;11.284;2023-03-12T14:07:06;16.27;;;4.53;;
5191;SDS011;2615;44.524;11.284;2023-03-12T14:10:10;10.63;;;4.30;;
5191;SDS011;2615;44.524;11.284;2023-03-12T14:12:50;12.20;;;3.87;;
5191;SDS011;2615;44.524;11.284;2023-03-12T14:15:26;7.77;;;3.73;;
5191;SDS011;2615;44.524;11.284;2023-03-12T14:18:01;8.47;;;3.27;;
5191;SDS011;2615;44.524;11.284;2023-03-12T14:20:38;11.20;;;3.97;;
5191;SDS011;2615;44.524;11.284;2023-03-12T14:23:08;13.33;;;4.60;;
5191;SDS011;2615;44.524;11.284;2023-03-12T14:25:42;15.83;;;3.70;;
5191;SDS011;2615;44.524;11.284;2023-03-12T14:28:13;6.57;;;3.30;;
5191;SDS011;2615;44.524;11.284;2023-03-12T14:30:46;33.97;;;5.00;;
5191;SDS011;2615;44.524;11.284;2023-03-12T14:33:18;14.30;;;4.50;;
5191;SDS011;2615;44.524;11.284;2023-03-12T14:35:49;16.90;;;4.73;;
5191;SDS011;2615;44.524;11.284;2023-03-12T14:38:21;7.80;;;3.10;;
5191;SDS011;2615;44.524;11.284;2023-03-12T14:40:57;15.10;;;4.23;;
5191;SDS011;2615;44.524;11.284;2023-03-12T14:43:31;13.07;;;4.30;;
5191;SDS011;2615;44.524;11.284;2023-03-12T14:46:02;13.97;;;3.43;;
5191;SDS011;2615;44.524;11.284;2023-03-12T14:48:32;7.27;;;3.40;;
5191;SDS011;2615;44.524;11.284;2023-03-12T14:51:02;9.23;;;3.73;;
5191;SDS011;2615;44.524;11.284;2023-03-12T14:53:33;9.63;;;3.70;;
5191;SDS011;2615;44.524;11.284;2023-03-12T14:56:04;8.80;;;3.30;;
5191;SDS011;2615;44.524;11.284;2023-03-12T14:58:40;13.17;;;3.67;;
5191;SDS011;2615;44.524;11.284;2023-03-12T15:01:11;273.57;;;23.97;;
5191;SDS011;2615;44.524;11.284;2023-03-12T15:03:41;20.83;;;4.13;;
5191;SDS011;2615;44.524;11.284;2023-03-12T15:06:13;19.43;;;4.83;;
5191;SDS011;2615;44.524;11.284;2023-03-12T15:08:44;11.17;;;4.17;;
5191;SDS011;2615;44.524;11.284;2023-03-12T15:11:12;9.70;;;3.80;;
5191;SDS011;2615;44.524;11.284;2023-03-12T15:13:47;10.17;;;4.50;;
5191;SDS011;2615;44.524;11.284;2023-03-12T15:16:16;14.57;;;4.10;;
5191;SDS011;2615;44.524;11.284;2023-03-12T15:18:45;9.90;;;4.13;;
5191;SDS011;2615;44.524;11.284;2023-03-12T15:21:15;10.97;;;4.10;;
5191;SDS011;2615;44.524;11.284;2023-03-12T15:23:44;9.60;;;3.67;;
5191;SDS011;2615;44.524;11.284;2023-03-12T15:26:15;10.03;;;3.97;;
5191;SDS011;2615;44.524;11.284;2023-03-12T15:28:56;18.97;;;4.87;;